sensor_id;sensor_type;location;lat;lon;timestamp;pressure;altitude;pressure_sealevel;temperature;humidity
19831;BME280;10076;52.008;4.708;2023-09-19T00:00:56;100729.13;;;17.03;100.00
19831;BME280;10076;52.008;4.708;2023-09-19T00:03:22;100726.94;;;17.16;100.00
19831;BME280;10076;52.008;4.708;2023-09-19T00:05:48;100728.91;;;17.14;100.00
19831;BME280;10076;52.008;4.708;2023-09-19T00:08:15;100733.19;;;17.24;100.00
19831;BME280;10076;52.008;4.708;2023-09-19T00:10:41;100737.66;;;17.24;100.00
19831;BME280;10076;52.008;4.708;2023-09-19T00:13:07;100739.72;;;17.12;100.00
19831;BME280;10076;52.008;4.708;2023-09-19T00:15:37;100741.81;;;17.35;100.00
19831;BME280;10076;52.008;4.708;2023-09-19T00:18:04;100739.47;;;17.33;100.00
19831;BME280;10076;52.008;4.708;2023-09-19T00:20:32;100744.69;;;17.42;100.00
19831;BME280;10076;52.008;4.708;2023-09-19T00:22:57;100746.88;;;17.38;100.00
19831;BME280;10076;52.008;4.708;2023-09-19T00:25:30;100743.94;;;17.32;100.00
19831;BME280;10076;52.008;4.708;2023-09-19T00:27:57;100749.00;;;17.35;100.00
19831;BME280;10076;52.008;4.708;2023-09-19T00:30:23;100753.19;;;17.37;100.00
19831;BME280;10076;52.008;4.708;2023-09-19T00:32:50;100755.06;;;17.28;100.00
19831;BME280;10076;52.008;4.708;2023-09-19T00:35:20;100748.47;;;17.32;100.00
19831;BME280;10076;52.008;4.708;2023-09-19T00:37:45;100746.44;;;17.33;100.00
19831;BME280;10076;52.008;4.708;2023-09-19T00:40:11;100752.13;;;17.31;100.00
19831;BME280;10076;52.008;4.708;2023-09-19T00:42:43;100751.97;;;17.49;100.00
19831;BME280;10076;52.008;4.708;2023-09-19T00:45:10;100748.47;;;17.32;100.00
19831;BME280;10076;52.008;4.708;2023-09-19T00:47:47;100752.13;;;17.31;100.00
19831;BME280;10076;52.008;4.708;2023-09-19T00:50:15;100755.53;;;17.40;100.00
19831;BME280;10076;52.008;4.708;2023-09-19T00:52:43;100752.56;;;17.26;100.00
19831;BME280;10076;52.008;4.708;2023-09-19T00:55:09;100758.59;;;17.28;100.00
19831;BME280;10076;52.008;4.708;2023-09-19T00:57:36;100757.88;;;17.09;100.00
19831;BME280;10076;52.008;4.708;2023-09-19T01:00:04;100761.69;;;17.24;100.00
19831;BME280;10076;52.008;4.708;2023-09-19T01:02:31;100767.63;;;17.18;100.00
19831;BME280;10076;52.008;4.708;2023-09-19T01:04:57;100764.94;;;17.18;100.00
19831;BME280;10076;52.008;4.708;2023-09-19T01:07:23;100768.31;;;17.20;100.00
19831;BME280;10076;52.008;4.708;2023-09-19T01:09:48;100772.09;;;17.00;100.00
19831;BME280;10076;52.008;4.708;2023-09-19T01:12:17;100765.25;;;16.97;100.00
19831;BME280;10076;52.008;4.708;2023-09-19T01:14:58;100774.31;;;17.22;100.00
19831;BME280;10076;52.008;4.708;2023-09-19T01:17:46;100768.00;;;17.05;100.00
19831;BME280;10076;52.008;4.708;2023-09-19T01:23:00;100772.09;;;17.27;100.00
19831;BME280;10076;52.008;4.708;2023-09-19T01:28:34;100773.75;;;17.28;100.00
19831;BME280;10076;52.008;4.708;2023-09-19T01:31:04;100770.19;;;17.36;100.00
19831;BME280;10076;52.008;4.708;2023-09-19T01:36:31;100770.16;;;17.54;100.00
19831;BME280;10076;52.008;4.708;2023-09-19T01:39:02;100780.09;;;17.44;100.00
19831;BME280;10076;52.008;4.708;2023-09-19T01:44:05;100778.47;;;17.68;100.00
19831;BME280;10076;52.008;4.708;2023-09-19T01:46:39;100770.69;;;17.57;100.00
19831;BME280;10076;52.008;4.708;2023-09-19T01:49:15;100779.94;;;17.63;100.00
19831;BME280;10076;52.008;4.708;2023-09-19T01:51:53;100784.28;;;17.46;100.00
19831;BME280;10076;52.008;4.708;2023-09-19T01:54:26;100785.97;;;17.47;100.00
19831;BME280;10076;52.008;4.708;2023-09-19T01:57:09;100780.78;;;17.63;100.00
19831;BME280;10076;52.008;4.708;2023-09-19T01:59:50;100783.94;;;17.59;100.00
19831;BME280;10076;52.008;4.708;2023-09-19T02:02:18;100787.50;;;17.33;100.00
19831;BME280;10076;52.008;4.708;2023-09-19T02:04:47;100784.53;;;17.35;100.00
19831;BME280;10076;52.008;4.708;2023-09-19T02:07:13;100787.34;;;17.34;100.00
19831;BME280;10076;52.008;4.708;2023-09-19T02:09:42;100784.91;;;17.40;100.00
19831;BME280;10076;52.008;4.708;2023-09-19T02:12:08;100789.78;;;17.28;100.00
19831;BME280;10076;52.008;4.708;2023-09-19T02:14:34;100791.72;;;17.35;100.00
19831;BME280;10076;52.008;4.708;2023-09-19T02:17:01;100784.97;;;17.31;100.00
19831;BME280;10076;52.008;4.708;2023-09-19T02:19:27;100781.63;;;17.46;100.00
19831;BME280;10076;52.008;4.708;2023-09-19T02:21:53;100784.97;;;17.31;100.00
19831;BME280;10076;52.008;4.708;2023-09-19T02:24:18;100784.91;;;17.40;100.00
19831;BME280;10076;52.008;4.708;2023-09-19T02:26:44;100778.19;;;17.36;100.00
19831;BME280;10076;52.008;4.708;2023-09-19T02:29:09;100788.34;;;17.33;100.00
19831;BME280;10076;52.008;4.708;2023-09-19T02:31:38;100792.34;;;17.20;100.00
19831;BME280;10076;52.008;4.708;2023-09-19T02:34:03;100788.97;;;17.18;100.00
19831;BME280;10076;52.008;4.708;2023-09-19T02:36:31;100794.16;;;17.19;100.00
19831;BME280;10076;52.008;4.708;2023-09-19T02:38:57;100797.50;;;17.31;100.00
19831;BME280;10076;52.008;4.708;2023-09-19T02:41:22;100794.56;;;17.24;100.00
19831;BME280;10076;52.008;4.708;2023-09-19T02:43:47;100797.38;;;17.23;100.00
19831;BME280;10076;52.008;4.708;2023-09-19T02:46:13;100800.50;;;17.18;100.00
19831;BME280;10076;52.008;4.708;2023-09-19T02:48:38;100796.06;;;17.09;100.00
19831;BME280;10076;52.008;4.708;2023-09-19T02:51:04;100796.00;;;17.19;100.00
19831;BME280;10076;52.008;4.708;2023-09-19T02:53:30;100796.81;;;17.19;100.00
19831;BME280;10076;52.008;4.708;2023-09-19T02:55:57;100786.91;;;17.38;100.00
19831;BME280;10076;52.008;4.708;2023-09-19T02:58:22;100786.19;;;17.54;100.00
19831;BME280;10076;52.008;4.708;2023-09-19T03:00:48;100786.91;;;17.38;100.00
19831;BME280;10076;52.008;4.708;2023-09-19T03:03:16;100783.97;;;17.32;100.00
19831;BME280;10076;52.008;4.708;2023-09-19T03:05:42;100783.25;;;17.13;100.00
19831;BME280;10076;52.008;4.708;2023-09-19T03:08:12;100799.41;;;17.55;100.00
19831;BME280;10076;52.008;4.708;2023-09-19T03:10:40;100786.81;;;17.31;100.00
19831;BME280;10076;52.008;4.708;2023-09-19T03:13:05;100794.53;;;17.07;100.00
19831;BME280;10076;52.008;4.708;2023-09-19T03:15:31;100795.34;;;17.07;100.00
19831;BME280;10076;52.008;4.708;2023-09-19T03:17:56;100801.34;;;17.19;100.00
19831;BME280;10076;52.008;4.708;2023-09-19T03:20:23;100799.75;;;16.99;100.00
19831;BME280;10076;52.008;4.708;2023-09-19T03:22:48;100812.75;;;17.11;100.00
19831;BME280;10076;52.008;4.708;2023-09-19T03:25:13;100799.16;;;17.32;100.00
19831;BME280;10076;52.008;4.708;2023-09-19T03:27:39;100792.00;;;17.32;100.00
19831;BME280;10076;52.008;4.708;2023-09-19T03:30:05;100796.75;;;17.11;100.00
19831;BME280;10076;52.008;4.708;2023-09-19T03:32:37;100806.13;;;17.15;100.00
19831;BME280;10076;52.008;4.708;2023-09-19T03:35:03;100793.00;;;17.04;100.00
19831;BME280;10076;52.008;4.708;2023-09-19T03:37:31;100788.91;;;16.83;100.00
19831;BME280;10076;52.008;4.708;2023-09-19T03:39:56;100788.03;;;16.92;100.00
19831;BME280;10076;52.008;4.708;2023-09-19T03:42:22;100788.31;;;16.89;100.00
19831;BME280;10076;52.008;4.708;2023-09-19T03:44:51;100781.50;;;16.77;100.00
19831;BME280;10076;52.008;4.708;2023-09-19T03:47:17;100784.91;;;16.69;100.00
19831;BME280;10076;52.008;4.708;2023-09-19T03:49:44;100786.84;;;16.77;100.00
19831;BME280;10076;52.008;4.708;2023-09-19T03:52:09;100799.88;;;16.80;100.00
19831;BME280;10076;52.008;4.708;2023-09-19T03:54:35;100800.88;;;16.52;100.00
19831;BME280;10076;52.008;4.708;2023-09-19T03:57:00;100808.94;;;16.60;100.00
19831;BME280;10076;52.008;4.708;2023-09-19T03:59:25;100806.63;;;16.48;100.00
19831;BME280;10076;52.008;4.708;2023-09-19T04:01:51;100810.56;;;16.80;100.00
19831;BME280;10076;52.008;4.708;2023-09-19T04:04:20;100817.09;;;16.59;100.00
19831;BME280;10076;52.008;4.708;2023-09-19T04:06:46;100813.19;;;16.53;100.00
19831;BME280;10076;52.008;4.708;2023-09-19T04:09:11;100824.09;;;16.69;100.00
19831;BME280;10076;52.008;4.708;2023-09-19T04:11:36;100827.16;;;16.74;100.00
19831;BME280;10076;52.008;4.708;2023-09-19T04:14:03;100831.53;;;16.65;100.00
19831;BME280;10076;52.008;4.708;2023-09-19T04:16:29;100838.09;;;16.35;100.00
19831;BME280;10076;52.008;4.708;2023-09-19T04:18:54;100835.03;;;16.66;100.00
19831;BME280;10076;52.008;4.708;2023-09-19T04:21:20;100834.44;;;16.72;100.00
19831;BME280;10076;52.008;4.708;2023-09-19T04:23:45;100831.44;;;16.48;100.00
19831;BME280;10076;52.008;4.708;2023-09-19T04:26:10;100829.91;;;16.46;100.00
19831;BME280;10076;52.008;4.708;2023-09-19T04:28:37;100842.97;;;16.49;100.00
19831;BME280;10076;52.008;4.708;2023-09-19T04:31:03;100840.16;;;16.41;100.00
19831;BME280;10076;52.008;4.708;2023-09-19T04:33:29;100858.41;;;16.45;100.00
19831;BME280;10076;52.008;4.708;2023-09-19T04:35:54;100840.53;;;16.55;100.00
19831;BME280;10076;52.008;4.708;2023-09-19T04:38:20;100841.31;;;16.29;100.00
19831;BME280;10076;52.008;4.708;2023-09-19T04:40:46;100832.16;;;16.50;100.00
19831;BME280;10076;52.008;4.708;2023-09-19T04:43:12;100841.31;;;16.38;100.00
19831;BME280;10076;52.008;4.708;2023-09-19T04:45:38;100847.44;;;16.48;100.00
19831;BME280;10076;52.008;4.708;2023-09-19T04:48:04;100850.63;;;16.61;100.00
19831;BME280;10076;52.008;4.708;2023-09-19T04:50:31;100850.28;;;16.73;100.00
19831;BME280;10076;52.008;4.708;2023-09-19T04:52:57;100852.69;;;16.40;100.00
19831;BME280;10076;52.008;4.708;2023-09-19T04:55:22;100846.44;;;16.59;100.00
19831;BME280;10076;52.008;4.708;2023-09-19T04:57:50;100857.53;;;16.54;100.00
19831;BME280;10076;52.008;4.708;2023-09-19T05:00:20;100857.31;;;16.74;100.00
19831;BME280;10076;52.008;4.708;2023-09-19T05:02:53;100847.22;;;16.68;100.00
19831;BME280;10076;52.008;4.708;2023-09-19T05:05:20;100846.88;;;16.45;100.00
19831;BME280;10076;52.008;4.708;2023-09-19T05:07:46;100859.78;;;16.49;100.00
19831;BME280;10076;52.008;4.708;2023-09-19T05:10:12;100861.47;;;16.50;100.00
19831;BME280;10076;52.008;4.708;2023-09-19T05:12:38;100854.75;;;16.46;100.00
19831;BME280;10076;52.008;4.708;2023-09-19T05:15:04;100872.72;;;16.44;100.00
19831;BME280;10076;52.008;4.708;2023-09-19T05:17:30;100857.81;;;16.61;100.00
19831;BME280;10076;52.008;4.708;2023-09-19T05:19:55;100849.69;;;16.43;100.00
19831;BME280;10076;52.008;4.708;2023-09-19T05:22:20;100860.66;;;16.40;100.00
19831;BME280;10076;52.008;4.708;2023-09-19T05:24:46;100854.47;;;16.49;100.00
19831;BME280;10076;52.008;4.708;2023-09-19T05:27:14;100859.09;;;16.47;100.00
19831;BME280;10076;52.008;4.708;2023-09-19T05:29:43;100852.34;;;16.53;100.00
19831;BME280;10076;52.008;4.708;2023-09-19T05:32:10;100850.97;;;16.49;100.00
19831;BME280;10076;52.008;4.708;2023-09-19T05:34:36;100847.22;;;16.68;100.00
19831;BME280;10076;52.008;4.708;2023-09-19T05:37:01;100845.88;;;16.55;100.00
19831;BME280;10076;52.008;4.708;2023-09-19T05:39:26;100847.94;;;16.70;100.00
19831;BME280;10076;52.008;4.708;2023-09-19T05:41:52;100846.41;;;16.68;100.00
19831;BME280;10076;52.008;4.708;2023-09-19T05:44:17;100853.41;;;16.69;100.00
19831;BME280;10076;52.008;4.708;2023-09-19T05:46:42;100854.03;;;16.54;100.00
19831;BME280;10076;52.008;4.708;2023-09-19T05:49:08;100861.47;;;16.50;100.00
19831;BME280;10076;52.008;4.708;2023-09-19T05:51:33;100862.28;;;16.60;100.00
19831;BME280;10076;52.008;4.708;2023-09-19T05:53:59;100860.91;;;16.56;100.00
19831;BME280;10076;52.008;4.708;2023-09-19T05:56:24;100866.81;;;16.41;100.00
19831;BME280;10076;52.008;4.708;2023-09-19T05:58:49;100864.28;;;16.49;100.00
19831;BME280;10076;52.008;4.708;2023-09-19T06:01:17;100870.97;;;16.62;100.00
19831;BME280;10076;52.008;4.708;2023-09-19T06:03:43;100875.56;;;16.69;100.00
19831;BME280;10076;52.008;4.708;2023-09-19T06:06:08;100870.94;;;16.71;100.00
19831;BME280;10076;52.008;4.708;2023-09-19T06:08:34;100878.09;;;16.71;100.00
19831;BME280;10076;52.008;4.708;2023-09-19T06:10:59;100871.94;;;16.70;100.00
19831;BME280;10076;52.008;4.708;2023-09-19T06:13:27;100876.41;;;16.70;100.00
19831;BME280;10076;52.008;4.708;2023-09-19T06:15:52;100874.81;;;16.86;100.00
19831;BME280;10076;52.008;4.708;2023-09-19T06:18:18;100880.75;;;16.71;100.00
19831;BME280;10076;52.008;4.708;2023-09-19T06:20:48;100879.81;;;16.62;100.00
19831;BME280;10076;52.008;4.708;2023-09-19T06:23:16;100876.88;;;16.65;100.00
19831;BME280;10076;52.008;4.708;2023-09-19T06:25:42;100883.81;;;16.76;100.00
19831;BME280;10076;52.008;4.708;2023-09-19T06:28:08;100881.78;;;16.97;100.00
19831;BME280;10076;52.008;4.708;2023-09-19T06:30:37;100877.22;;;16.80;100.00
19831;BME280;10076;52.008;4.708;2023-09-19T06:33:05;100874.53;;;16.89;100.00
19831;BME280;10076;52.008;4.708;2023-09-19T06:35:32;100875.78;;;16.85;100.00
19831;BME280;10076;52.008;4.708;2023-09-19T06:37:58;100886.41;;;16.95;100.00
19831;BME280;10076;52.008;4.708;2023-09-19T06:40:23;100887.91;;;17.07;100.00
19831;BME280;10076;52.008;4.708;2023-09-19T06:42:53;100891.91;;;16.93;100.00
19831;BME280;10076;52.008;4.708;2023-09-19T06:45:19;100895.53;;;17.02;100.00
19831;BME280;10076;52.008;4.708;2023-09-19T06:47:45;100893.09;;;17.08;100.00
19831;BME280;10076;52.008;4.708;2023-09-19T06:50:11;100889.09;;;16.95;100.00
19831;BME280;10076;52.008;4.708;2023-09-19T06:52:40;100892.97;;;17.10;100.00
19831;BME280;10076;52.008;4.708;2023-09-19T06:55:06;100891.53;;;17.15;100.00
19831;BME280;10076;52.008;4.708;2023-09-19T06:57:32;100892.53;;;17.05;100.00
19831;BME280;10076;52.008;4.708;2023-09-19T06:59:57;100895.66;;;17.36;100.00
19831;BME280;10076;52.008;4.708;2023-09-19T07:02:22;100894.88;;;17.27;100.00
19831;BME280;10076;52.008;4.708;2023-09-19T07:04:48;100893.25;;;17.33;100.00
19831;BME280;10076;52.008;4.708;2023-09-19T07:07:15;100891.19;;;17.28;100.00
19831;BME280;10076;52.008;4.708;2023-09-19T07:09:40;100898.00;;;17.39;100.00
19831;BME280;10076;52.008;4.708;2023-09-19T07:12:07;100899.63;;;17.50;100.00
19831;BME280;10076;52.008;4.708;2023-09-19T07:14:32;100896.88;;;17.42;100.00
19831;BME280;10076;52.008;4.708;2023-09-19T07:16:58;100892.09;;;17.80;100.00
19831;BME280;10076;52.008;4.708;2023-09-19T07:19:25;100910.09;;;17.61;100.00
19831;BME280;10076;52.008;4.708;2023-09-19T07:21:53;100901.16;;;17.52;100.00
19831;BME280;10076;52.008;4.708;2023-09-19T07:24:18;100912.94;;;17.77;100.00
19831;BME280;10076;52.008;4.708;2023-09-19T07:26:45;100914.69;;;17.68;100.00
19831;BME280;10076;52.008;4.708;2023-09-19T07:29:10;100907.75;;;17.75;100.00
19831;BME280;10076;52.008;4.708;2023-09-19T07:31:36;100904.69;;;17.70;100.00
19831;BME280;10076;52.008;4.708;2023-09-19T07:34:01;100907.91;;;17.74;100.00
19831;BME280;10076;52.008;4.708;2023-09-19T07:36:29;100916.47;;;17.77;100.00
19831;BME280;10076;52.008;4.708;2023-09-19T07:38:54;100905.94;;;17.76;100.00
19831;BME280;10076;52.008;4.708;2023-09-19T07:41:20;100903.09;;;17.77;100.00
19831;BME280;10076;52.008;4.708;2023-09-19T07:43:46;100906.47;;;17.97;100.00
19831;BME280;10076;52.008;4.708;2023-09-19T07:46:11;100905.63;;;17.96;100.00
19831;BME280;10076;52.008;4.708;2023-09-19T07:48:37;100919.38;;;18.01;100.00
19831;BME280;10076;52.008;4.708;2023-09-19T07:51:07;100915.84;;;18.18;100.00
19831;BME280;10076;52.008;4.708;2023-09-19T07:53:34;100917.06;;;18.06;100.00
19831;BME280;10076;52.008;4.708;2023-09-19T07:56:07;100908.75;;;17.92;100.00
19831;BME280;10076;52.008;4.708;2023-09-19T07:58:33;100916.53;;;18.20;100.00
19831;BME280;10076;52.008;4.708;2023-09-19T08:01:03;100903.41;;;18.26;100.00
19831;BME280;10076;52.008;4.708;2023-09-19T08:03:29;100908.09;;;18.50;100.00
19831;BME280;10076;52.008;4.708;2023-09-19T08:05:56;100905.22;;;18.43;100.00
19831;BME280;10076;52.008;4.708;2023-09-19T08:08:23;100913.34;;;18.34;100.00
19831;BME280;10076;52.008;4.708;2023-09-19T08:10:55;100910.78;;;18.50;100.00
19831;BME280;10076;52.008;4.708;2023-09-19T08:13:22;100895.31;;;18.36;100.00
19831;BME280;10076;52.008;4.708;2023-09-19T08:15:48;100893.69;;;18.68;100.00
19831;BME280;10076;52.008;4.708;2023-09-19T08:18:15;100898.28;;;18.83;100.00
19831;BME280;10076;52.008;4.708;2023-09-19T08:20:41;100895.75;;;18.82;100.00
19831;BME280;10076;52.008;4.708;2023-09-19T08:23:07;100892.47;;;19.21;100.00
19831;BME280;10076;52.008;4.708;2023-09-19T08:25:33;100901.09;;;19.41;100.00
19831;BME280;10076;52.008;4.708;2023-09-19T08:27:59;100883.84;;;19.43;100.00
19831;BME280;10076;52.008;4.708;2023-09-19T08:30:27;100890.41;;;19.48;100.00
19831;BME280;10076;52.008;4.708;2023-09-19T08:33:01;100886.09;;;19.71;100.00
19831;BME280;10076;52.008;4.708;2023-09-19T08:35:29;100895.28;;;19.61;100.00
19831;BME280;10076;52.008;4.708;2023-09-19T08:37:55;100898.28;;;19.50;100.00
19831;BME280;10076;52.008;4.708;2023-09-19T08:40:21;100890.53;;;19.39;100.00
19831;BME280;10076;52.008;4.708;2023-09-19T08:42:53;100894.44;;;19.52;100.00
19831;BME280;10076;52.008;4.708;2023-09-19T08:45:20;100895.16;;;19.70;100.00
19831;BME280;10076;52.008;4.708;2023-09-19T08:50:51;100879.84;;;19.39;100.00
19831;BME280;10076;52.008;4.708;2023-09-19T08:55:59;100889.56;;;19.40;100.00
19831;BME280;10076;52.008;4.708;2023-09-19T08:58:31;100921.88;;;19.13;100.00
19831;BME280;10076;52.008;4.708;2023-09-19T09:01:00;100890.13;;;19.18;100.00
19831;BME280;10076;52.008;4.708;2023-09-19T09:03:29;100888.06;;;19.12;100.00
19831;BME280;10076;52.008;4.708;2023-09-19T09:05:57;100895.69;;;19.33;100.00
19831;BME280;10076;52.008;4.708;2023-09-19T09:08:23;100885.78;;;19.17;100.00
19831;BME280;10076;52.008;4.708;2023-09-19T09:10:50;100885.50;;;19.36;100.00
19831;BME280;10076;52.008;4.708;2023-09-19T09:13:16;100887.47;;;19.26;100.00
19831;BME280;10076;52.008;4.708;2023-09-19T09:15:42;100883.53;;;19.54;100.00
19831;BME280;10076;52.008;4.708;2023-09-19T09:18:09;100887.72;;;19.48;100.00
19831;BME280;10076;52.008;4.708;2023-09-19T09:20:35;100890.94;;;19.52;100.00
19831;BME280;10076;52.008;4.708;2023-09-19T09:23:01;100890.75;;;19.61;100.00
19831;BME280;10076;52.008;4.708;2023-09-19T09:28:19;100907.06;;;19.92;100.00
19831;BME280;10076;52.008;4.708;2023-09-19T09:30:45;100893.88;;;20.22;100.00
19831;BME280;10076;52.008;4.708;2023-09-19T09:33:11;100890.75;;;19.53;100.00
19831;BME280;10076;52.008;4.708;2023-09-19T09:35:46;100888.63;;;19.73;100.00
19831;BME280;10076;52.008;4.708;2023-09-19T09:38:12;100878.19;;;19.46;100.00
19831;BME280;10076;52.008;4.708;2023-09-19T09:40:49;100889.84;;;19.29;100.00
19831;BME280;10076;52.008;4.708;2023-09-19T09:43:30;100891.44;;;19.14;100.00
19831;BME280;10076;52.008;4.708;2023-09-19T09:48:48;100888.00;;;20.18;100.00
19831;BME280;10076;52.008;4.708;2023-09-19T09:52:02;100881.22;;;20.94;100.00
19831;BME280;10076;52.008;4.708;2023-09-19T09:54:33;100903.78;;;21.15;100.00
19831;BME280;10076;52.008;4.708;2023-09-19T09:57:05;100868.31;;;21.28;100.00
19831;BME280;10076;52.008;4.708;2023-09-19T10:02:25;100875.19;;;21.30;100.00
19831;BME280;10076;52.008;4.708;2023-09-19T10:04:57;100864.41;;;21.38;100.00
19831;BME280;10076;52.008;4.708;2023-09-19T10:07:40;100869.69;;;21.16;100.00
19831;BME280;10076;52.008;4.708;2023-09-19T10:10:15;100869.81;;;21.91;100.00
19831;BME280;10076;52.008;4.708;2023-09-19T10:12:55;100877.44;;;22.24;100.00
19831;BME280;10076;52.008;4.708;2023-09-19T10:15:31;100867.03;;;22.21;100.00
19831;BME280;10076;52.008;4.708;2023-09-19T10:17:59;100861.88;;;22.12;100.00
19831;BME280;10076;52.008;4.708;2023-09-19T10:20:26;100866.00;;;21.47;100.00
19831;BME280;10076;52.008;4.708;2023-09-19T10:22:56;100854.06;;;21.50;100.00
19831;BME280;10076;52.008;4.708;2023-09-19T10:25:27;100848.47;;;21.89;100.00
19831;BME280;10076;52.008;4.708;2023-09-19T10:28:00;100853.13;;;22.54;100.00
19831;BME280;10076;52.008;4.708;2023-09-19T10:30:28;100839.38;;;22.93;100.00
19831;BME280;10076;52.008;4.708;2023-09-19T10:33:03;100846.69;;;23.63;100.00
19831;BME280;10076;52.008;4.708;2023-09-19T10:35:29;100842.03;;;23.92;100.00
19831;BME280;10076;52.008;4.708;2023-09-19T10:37:59;100854.03;;;24.31;100.00
19831;BME280;10076;52.008;4.708;2023-09-19T10:40:27;100852.66;;;23.93;100.00
19831;BME280;10076;52.008;4.708;2023-09-19T10:43:01;100834.22;;;23.97;100.00
19831;BME280;10076;52.008;4.708;2023-09-19T10:45:28;100842.88;;;24.95;100.00
19831;BME280;10076;52.008;4.708;2023-09-19T10:47:57;100832.63;;;25.78;100.00
19831;BME280;10076;52.008;4.708;2023-09-19T10:50:23;100841.19;;;25.28;100.00
19831;BME280;10076;52.008;4.708;2023-09-19T10:52:49;100837.97;;;23.96;100.00
19831;BME280;10076;52.008;4.708;2023-09-19T10:55:17;100813.47;;;22.92;100.00
19831;BME280;10076;52.008;4.708;2023-09-19T10:57:44;100821.78;;;22.02;100.00
19831;BME280;10076;52.008;4.708;2023-09-19T11:00:10;100821.91;;;21.64;100.00
19831;BME280;10076;52.008;4.708;2023-09-19T11:05:38;100823.00;;;23.37;100.00
19831;BME280;10076;52.008;4.708;2023-09-19T11:08:06;100810.59;;;22.64;100.00
19831;BME280;10076;52.008;4.708;2023-09-19T11:10:49;100820.03;;;23.32;100.00
19831;BME280;10076;52.008;4.708;2023-09-19T11:13:25;100819.97;;;23.11;100.00
19831;BME280;10076;52.008;4.708;2023-09-19T11:26:44;100810.59;;;22.13;100.00
19831;BME280;10076;52.008;4.708;2023-09-19T11:29:28;100801.06;;;22.25;100.00
19831;BME280;10076;52.008;4.708;2023-09-19T11:31:57;100807.44;;;22.46;100.00
19831;BME280;10076;52.008;4.708;2023-09-19T11:42:46;100793.09;;;20.97;100.00
19831;BME280;10076;52.008;4.708;2023-09-19T11:48:23;100798.41;;;20.67;100.00
19831;BME280;10076;52.008;4.708;2023-09-19T11:50:51;100791.38;;;20.58;100.00
19831;BME280;10076;52.008;4.708;2023-09-19T11:53:17;100801.84;;;20.37;100.00
19831;BME280;10076;52.008;4.708;2023-09-19T11:55:45;100800.16;;;20.44;100.00
19831;BME280;10076;52.008;4.708;2023-09-19T11:58:12;100808.53;;;20.41;100.00
19831;BME280;10076;52.008;4.708;2023-09-19T12:00:40;100810.72;;;20.38;100.00
19831;BME280;10076;52.008;4.708;2023-09-19T12:03:10;100802.34;;;20.41;100.00
19831;BME280;10076;52.008;4.708;2023-09-19T12:05:36;100798.16;;;20.30;100.00
19831;BME280;10076;52.008;4.708;2023-09-19T12:08:03;100816.06;;;20.46;100.00
19831;BME280;10076;52.008;4.708;2023-09-19T12:10:29;100800.97;;;20.45;100.00
19831;BME280;10076;52.008;4.708;2023-09-19T12:12:54;100806.81;;;20.56;100.00
19831;BME280;10076;52.008;4.708;2023-09-19T12:15:25;100799.25;;;20.76;100.00
19831;BME280;10076;52.008;4.708;2023-09-19T12:17:59;100805.50;;;20.98;100.00
19831;BME280;10076;52.008;4.708;2023-09-19T12:20:25;100786.72;;;21.29;100.00
19831;BME280;10076;52.008;4.708;2023-09-19T12:22:50;100784.06;;;21.21;100.00
19831;BME280;10076;52.008;4.708;2023-09-19T12:25:16;100800.00;;;21.53;100.00
19831;BME280;10076;52.008;4.708;2023-09-19T12:27:47;100784.25;;;21.72;100.00
19831;BME280;10076;52.008;4.708;2023-09-19T12:30:13;100778.63;;;21.59;100.00
19831;BME280;10076;52.008;4.708;2023-09-19T12:32:40;100795.06;;;21.34;100.00
19831;BME280;10076;52.008;4.708;2023-09-19T12:35:06;100815.50;;;21.43;100.00
19831;BME280;10076;52.008;4.708;2023-09-19T12:37:45;100813.66;;;21.13;100.00
19831;BME280;10076;52.008;4.708;2023-09-19T12:40:20;100807.78;;;21.40;100.00
19831;BME280;10076;52.008;4.708;2023-09-19T12:42:53;100808.69;;;21.32;100.00
19831;BME280;10076;52.008;4.708;2023-09-19T12:45:23;100798.91;;;21.39;100.00
19831;BME280;10076;52.008;4.708;2023-09-19T12:48:21;100796.13;;;21.77;100.00
19831;BME280;10076;52.008;4.708;2023-09-19T12:53:28;100786.97;;;21.86;100.00
19831;BME280;10076;52.008;4.708;2023-09-19T12:56:00;100794.59;;;21.97;100.00
19831;BME280;10076;52.008;4.708;2023-09-19T12:58:26;100800.78;;;22.20;100.00
19831;BME280;10076;52.008;4.708;2023-09-19T13:00:52;100801.28;;;22.01;100.00
19831;BME280;10076;52.008;4.708;2023-09-19T13:05:58;100779.78;;;22.16;100.00
19831;BME280;10076;52.008;4.708;2023-09-19T13:11:11;100791.53;;;21.63;100.00
19831;BME280;10076;52.008;4.708;2023-09-19T13:16:33;100798.28;;;21.29;100.00
19831;BME280;10076;52.008;4.708;2023-09-19T13:18:59;100790.19;;;21.37;100.00
19831;BME280;10076;52.008;4.708;2023-09-19T13:21:29;100796.97;;;21.25;100.00
19831;BME280;10076;52.008;4.708;2023-09-19T13:24:21;100795.19;;;21.10;100.00
19831;BME280;10076;52.008;4.708;2023-09-19T13:26:46;100787.84;;;21.04;100.00
19831;BME280;10076;52.008;4.708;2023-09-19T13:29:12;100793.97;;;20.90;100.00
19831;BME280;10076;52.008;4.708;2023-09-19T13:31:37;100775.22;;;21.12;100.00
19831;BME280;10076;52.008;4.708;2023-09-19T13:34:06;100780.84;;;21.25;100.00
19831;BME280;10076;52.008;4.708;2023-09-19T13:36:31;100772.38;;;21.14;100.00
19831;BME280;10076;52.008;4.708;2023-09-19T13:38:57;100769.28;;;21.25;100.00
19831;BME280;10076;52.008;4.708;2023-09-19T13:41:24;100769.91;;;21.27;100.00
19831;BME280;10076;52.008;4.708;2023-09-19T13:43:49;100786.22;;;20.95;100.00
19831;BME280;10076;52.008;4.708;2023-09-19T13:46:14;100773.88;;;20.70;100.00